createdAt,value
2024-01-04T00:02:44.830Z,13.57
2024-01-04T00:09:27.102Z,15.00
2024-01-04T00:16:13.426Z,13.20
2024-01-04T00:22:56.057Z,14.85
2024-01-04T00:29:38.306Z,34.55
2024-01-04T00:36:20.543Z,16.45
2024-01-04T00:43:03.717Z,16.45
2024-01-04T00:49:46.360Z,23.67
2024-01-04T00:56:38.189Z,14.23
2024-01-04T01:03:20.611Z,15.27
2024-01-04T01:10:03.252Z,16.35
2024-01-04T01:16:45.458Z,18.27
2024-01-04T01:23:27.992Z,14.02
2024-01-04T01:30:10.871Z,13.05
2024-01-04T01:36:54.058Z,16.80
2024-01-04T01:43:36.380Z,14.32
2024-01-04T01:50:25.112Z,14.60
2024-01-04T01:57:08.210Z,15.10
2024-01-04T02:03:51.486Z,24.42
2024-01-04T02:10:33.808Z,16.10
2024-01-04T02:17:16.059Z,17.08
2024-01-04T02:23:58.657Z,19.75
2024-01-04T02:30:41.011Z,16.77
2024-01-04T02:37:23.461Z,14.30
2024-01-04T02:44:05.769Z,15.10
2024-01-04T02:50:48.043Z,15.55
2024-01-04T02:57:30.351Z,14.07
2024-01-04T03:04:12.685Z,12.43
2024-01-04T03:10:54.997Z,16.02
2024-01-04T03:17:37.643Z,14.40
2024-01-04T03:24:20.124Z,14.68
2024-01-04T03:31:03.265Z,13.85
2024-01-04T03:37:45.480Z,14.02
2024-01-04T03:44:27.824Z,12.48
2024-01-04T03:51:13.578Z,13.23
2024-01-04T03:57:55.849Z,14.40
2024-01-04T04:04:38.014Z,14.35
2024-01-04T04:11:23.179Z,14.05
2024-01-04T04:18:05.877Z,14.18
2024-01-04T04:24:48.345Z,14.45
2024-01-04T04:31:30.637Z,14.85
2024-01-04T04:38:12.914Z,14.90
2024-01-04T04:44:55.295Z,40.72
2024-01-04T04:51:37.515Z,25.50
2024-01-04T04:58:19.794Z,19.63
2024-01-04T05:05:02.075Z,13.50
2024-01-04T05:11:44.789Z,18.23
2024-01-04T05:18:27.542Z,15.25
2024-01-04T05:25:13.607Z,15.65
2024-01-04T05:31:55.826Z,16.77
2024-01-04T05:38:38.097Z,23.80
2024-01-04T05:45:20.487Z,24.02
2024-01-04T05:52:05.897Z,29.48
2024-01-04T05:58:48.080Z,22.33
2024-01-04T06:05:30.432Z,18.30
2024-01-04T06:12:12.732Z,20.27
2024-01-04T06:18:56.053Z,33.20
2024-01-04T06:25:38.854Z,41.03
2024-01-04T06:32:21.110Z,21.77
2024-01-04T06:39:03.506Z,58.78
2024-01-04T06:45:45.794Z,21.13
2024-01-04T06:52:28.156Z,16.30
2024-01-04T06:59:10.383Z,40.58
2024-01-04T07:05:52.661Z,19.33
2024-01-04T07:12:35.007Z,21.25
2024-01-04T07:19:17.456Z,24.45
2024-01-04T07:26:00.182Z,23.52
2024-01-04T07:32:42.503Z,14.15
2024-01-04T07:39:25.417Z,16.98
2024-01-04T07:46:07.775Z,55.78
2024-01-04T07:52:49.959Z,17.20
2024-01-04T07:59:32.180Z,15.27
2024-01-04T08:06:14.696Z,20.13
2024-01-04T08:12:57.681Z,41.88
2024-01-04T08:19:40.074Z,15.32
2024-01-04T08:26:22.682Z,16.85
2024-01-04T08:33:05.353Z,29.90
2024-01-04T08:39:48.123Z,11.77
2024-01-04T08:46:31.425Z,13.23
2024-01-04T08:53:21.627Z,12.07
2024-01-04T09:00:05.905Z,13.23
2024-01-04T09:06:48.761Z,12.50
2024-01-04T09:13:31.307Z,9.98
2024-01-04T09:20:14.808Z,12.63
2024-01-04T09:26:57.476Z,9.90
2024-01-04T09:33:41.328Z,8.20
2024-01-04T09:40:23.651Z,9.90
2024-01-04T09:47:11.251Z,9.23
2024-01-04T09:53:57.411Z,12.43
2024-01-04T10:00:39.759Z,11.63
2024-01-04T10:07:28.138Z,11.80
2024-01-04T10:14:10.636Z,14.32
2024-01-04T10:21:06.502Z,14.85
2024-01-04T10:28:00.376Z,13.88
2024-01-04T10:34:43.451Z,19.02
2024-01-04T10:41:29.332Z,37.47
2024-01-04T10:48:16.126Z,20.85
2024-01-04T10:55:01.850Z,21.13
2024-01-04T11:01:46.264Z,13.48
2024-01-04T11:08:28.641Z,19.27
2024-01-04T11:15:14.209Z,12.73
2024-01-04T11:22:30.088Z,12.80
2024-01-04T11:29:13.152Z,11.45
2024-01-04T11:35:56.635Z,11.40
2024-01-04T11:42:41.552Z,12.10
2024-01-04T11:49:25.359Z,8.35
2024-01-04T11:56:08.543Z,12.25
2024-01-04T12:02:51.652Z,11.63
2024-01-04T12:09:33.951Z,9.95
2024-01-04T12:16:16.359Z,9.82
2024-01-04T12:22:58.681Z,10.10
2024-01-04T12:29:43.606Z,10.52
2024-01-04T12:36:26.374Z,12.90
2024-01-04T12:43:11.415Z,10.55
2024-01-04T12:49:57.700Z,10.95
2024-01-04T12:56:40.387Z,11.40
2024-01-04T13:03:22.805Z,10.48
2024-01-04T13:10:06.000Z,6.65
2024-01-04T13:16:51.615Z,5.97
2024-01-04T13:23:34.111Z,5.85
2024-01-04T13:30:17.331Z,6.78
2024-01-04T13:36:59.937Z,7.78
2024-01-04T13:43:42.159Z,8.02
2024-01-04T13:50:24.982Z,8.18
2024-01-04T13:57:07.339Z,7.82
2024-01-04T14:03:49.600Z,6.72
2024-01-04T14:10:31.886Z,7.22
2024-01-04T14:17:14.275Z,6.80
2024-01-04T14:23:56.871Z,7.10
2024-01-04T14:30:40.012Z,7.38
2024-01-04T14:37:23.244Z,6.35
2024-01-04T14:44:07.448Z,6.93
2024-01-04T14:50:52.552Z,7.40
2024-01-04T14:57:34.765Z,7.25
2024-01-04T15:04:17.059Z,7.50
2024-01-04T15:10:59.270Z,7.85
2024-01-04T15:17:42.266Z,6.65
2024-01-04T15:24:24.700Z,7.00
2024-01-04T15:31:07.271Z,7.28
2024-01-04T15:37:50.019Z,6.78
2024-01-04T15:44:32.374Z,7.07
2024-01-04T15:51:15.482Z,6.35
2024-01-04T15:57:57.918Z,6.65
2024-01-04T16:04:40.226Z,6.50
2024-01-04T16:11:23.025Z,6.50
2024-01-04T16:18:05.600Z,6.70
2024-01-04T16:24:47.904Z,7.03
2024-01-04T16:31:30.371Z,6.65
2024-01-04T16:38:12.910Z,5.80
2024-01-04T16:44:55.295Z,5.05
2024-01-04T16:51:41.551Z,5.43
2024-01-04T16:58:24.021Z,5.85
2024-01-04T17:05:11.199Z,4.80
2024-01-04T17:11:54.370Z,3.03
2024-01-04T17:18:36.659Z,3.58
2024-01-04T17:25:18.992Z,3.65
2024-01-04T17:32:01.563Z,4.10
2024-01-04T17:38:43.873Z,3.17
2024-01-04T17:45:26.153Z,2.60
2024-01-04T17:52:09.826Z,2.80
2024-01-04T17:58:53.035Z,2.47
2024-01-04T18:05:35.271Z,2.50
2024-01-04T18:12:17.652Z,1.95
2024-01-04T18:19:00.843Z,2.72
2024-01-04T18:25:43.239Z,2.25
2024-01-04T18:32:26.127Z,2.40
2024-01-04T18:39:08.508Z,3.90
2024-01-04T18:45:50.827Z,5.25
2024-01-04T18:52:33.176Z,4.22
2024-01-04T18:59:19.094Z,3.42
2024-01-04T19:06:02.246Z,2.72
2024-01-04T19:12:46.652Z,3.03
2024-01-04T19:26:11.172Z,4.68
2024-01-04T19:32:54.631Z,3.80
2024-01-04T19:39:36.959Z,3.55
2024-01-04T19:46:20.949Z,3.47
2024-01-04T19:53:04.768Z,3.50
2024-01-04T19:59:47.849Z,4.05
2024-01-04T20:06:31.722Z,4.55
2024-01-04T20:13:14.114Z,3.40
2024-01-04T20:19:56.630Z,3.28
2024-01-04T20:26:39.097Z,2.65
2024-01-04T20:33:22.370Z,2.50
2024-01-04T20:40:05.456Z,2.53
2024-01-04T20:46:49.774Z,3.33
2024-01-04T20:53:32.448Z,2.50
2024-01-04T21:00:15.110Z,2.75
2024-01-04T21:07:10.482Z,2.83
2024-01-04T21:13:52.729Z,2.60
2024-01-04T21:20:35.084Z,3.75
2024-01-04T21:27:17.390Z,2.25
2024-01-04T21:33:59.929Z,2.08
2024-01-04T21:40:43.334Z,1.50
2024-01-04T21:47:25.970Z,1.98
2024-01-04T21:54:08.866Z,1.83
2024-01-04T22:00:51.274Z,1.85
2024-01-04T22:07:33.598Z,2.05
2024-01-04T22:14:15.916Z,1.88
2024-01-04T22:20:58.451Z,1.50
2024-01-04T22:27:40.680Z,1.70
2024-01-04T22:34:23.296Z,3.03
2024-01-04T22:41:06.055Z,4.07
2024-01-04T22:47:48.511Z,2.83
2024-01-04T22:54:30.848Z,3.08
2024-01-04T23:01:13.525Z,2.55
2024-01-04T23:07:55.782Z,1.80
2024-01-04T23:14:37.965Z,2.92
2024-01-04T23:21:20.210Z,2.60
2024-01-04T23:28:02.553Z,3.78
2024-01-04T23:34:45.119Z,3.95
2024-01-04T23:41:27.500Z,3.00
2024-01-04T23:48:09.850Z,3.15
2024-01-04T23:54:52.241Z,3.20
